Overview Statistics Trail Chart Weather Telemetry Raw packets
 

This is the latest recevied weather packets stored in our database for station/object W1RCP. If no packets are shown the sender has not sent any weather packets the latest 10 day(s).

<< 111 112 113 114 >>
Time Temp. Humidity Pressure Rain* Wind** Luminosity Snow
1787769494 30° C 76% 1027.1 hPa 0 mm - 225 W/m² -
1787769189 30.56° C 74% 1026.9 hPa 0 mm - 153 W/m² -
1787768888 30.56° C 76% 1027.1 hPa 0 mm - 126 W/m² -
1787768584 31.11° C 74% 1026.7 hPa 0 mm - 170 W/m² -
1787768281 31.11° C 72% 1027 hPa 0 mm - 359 W/m² -
1787767977 31.11° C 73% 1026.9 hPa 0 mm - 385 W/m² -
1787767677 30.56° C 75% 1026.8 hPa 0 mm - 341 W/m² -
1787767376 29.44° C 80% 1027.1 hPa 0 mm - 1021 W/m² -
1787767075 29.44° C 82% 1027.2 hPa 0 mm - 271 W/m² -
1787766774 29.44° C 84% 1027.5 hPa 0 mm - 414 W/m² -
1787766474 28.89° C 87% 1027.5 hPa 0 mm - 303 W/m² -
1787766174 28.33° C 85% 1027.4 hPa 0 mm - 365 W/m² -
1787765869 28.89° C 85% 1027.6 hPa 0 mm - 205 W/m² -
1787765566 28.89° C 83% 1027.5 hPa 0 mm - 539 W/m² -
1787765266 29.44° C 83% 1027.8 hPa 0 mm - 472 W/m² -
1787764966 29.44° C 80% 1027.9 hPa 0 mm - 259 W/m² -
1787764661 28.89° C 81% 1028 hPa 0 mm - 374 W/m² -
1787764360 28.89° C 84% 1027.9 hPa 0 mm - 806 W/m² -
1787764057 28.89° C 83% 1027.9 hPa 0 mm - 885 W/m² -
1787763752 28.33° C 86% 1028.4 hPa 0 mm - 1047 W/m² -
1787763448 27.78° C 89% 1028.6 hPa 0 mm - 844 W/m² -
1787763148 27.22° C 90% 1028.2 hPa 0 mm - 416 W/m² -
1787762842 26.67° C 92% 1028.7 hPa 0 mm - 224 W/m² -

* Rain latest hour (hover to see other rain measurements)
** Current wind speed in m/s (hover to see current wind gust speed)